Data for 02/03/2007

Time Sea-Level Adjusted Pressure Absolute Pressure Temperature Relative Humidity Dew Point   
(mb) (inHg) (mb) (inHg) (C) (F) (%) (C) (F)
00:05 1015 29.97 844 24.92 -8.2 17.3 88 -9.9 14.2
00:10 1015 29.97 844 24.92 -8.2 17.2 87 -10.1 13.9
00:15 1015 29.97 844 24.92 -8.5 16.8 88 -10.1 13.9
00:20 1015 29.97 844 24.92 -8.6 16.5 88 -10.2 13.7
00:25 1015 29.97 844 24.92 -8.8 16.2 91 -10 14
00:30 1015 29.97 844 24.92 -8.9 15.9 90 -10.3 13.5
00:35 1015 29.97 844 24.92 -8.9 16 90 -10.3 13.5
00:40 1015 29.97 844 24.92 -8.7 16.4 88 -10.4 13.3
00:45 1015 29.97 844 24.92 -8.7 16.3 88 -10.4 13.4
00:50 1015 29.97 845 24.95 -8.6 16.6 85 -10.6 12.9
00:55 1015 29.97 845 24.95 -8.5 16.8 85 -10.6 12.9
01:00 1015 29.97 845 24.95 -8.6 16.6 83 -11 12.3
01:05 1015 29.97 844 24.92 -9 15.9 85 -11 12.2
01:10 1015 29.97 844 24.92 -9.2 15.5 84 -11.3 11.6
01:15 1015 29.97 844 24.92 -9.1 15.6 83 -11.6 11.2
01:20 1015 29.97 844 24.92 -9 15.9 82 -11.6 11.2
01:25 1015 29.97 844 24.92 -9 15.9 80 -11.8 10.8
01:30 1015 29.97 844 24.92 -9.1 15.7 81 -11.8 10.7
01:35 1015 29.97 844 24.92 -9.1 15.7 80 -11.9 10.6
01:40 1015 29.97 844 24.92 -8.9 16.1 78 -12 10.4
01:45 1015 29.97 844 24.92 -8.5 16.7 74 -12.4 9.8
01:50 1015 29.97 844 24.92 -7.8 17.9 74 -11.7 11
01:55 1015 29.97 844 24.92 -7.8 17.9 74 -11.7 10.9
02:00 1015 29.97 844 24.92 -7.7 18.1 73 -11.8 10.7
02:05 1015 29.97 844 24.92 -8 17.5 74 -11.9 10.5
02:10 1015 29.97 844 24.92 -7.8 17.9 72 -12 10.4
02:15 1015 29.97 844 24.92 -7.7 18.2 72 -11.8 10.8
02:20 1015 29.97 844 24.92 -7.4 18.6 71 -11.8 10.8
02:25 1015 29.97 844 24.92 -7.2 19.1 70 -11.8 10.7
02:30 1015 29.97 844 24.92 -7.1 19.2 70 -11.7 10.9
02:35 1015 29.97 844 24.92 -7.2 19.1 69 -11.9 10.7
02:40 1015 29.97 844 24.92 -7.7 18.2 73 -11.7 10.9
02:45 1015 29.97 844 24.92 -8 17.6 74 -11.9 10.6
02:50 1015 29.97 844 24.92 -7.7 18.1 73 -11.8 10.7
02:55 1015 29.97 844 24.92 -7.5 18.6 72 -11.7 11
03:00 1015 29.97 844 24.92 -7.5 18.5 73 -11.6 11.1
03:05 1015 29.97 844 24.92 -7.5 18.4 72 -11.7 10.9
03:10 1015 29.97 844 24.92 -7.7 18.1 73 -11.8 10.8
03:15 1015 29.97 844 24.92 -7.7 18.1 74 -11.7 11
03:20 1015 29.97 844 24.92 -7.4 18.7 71 -11.8 10.8
03:25 1015 29.97 844 24.92 -7.2 19.1 71 -11.6 11.1
03:30 1015 29.97 844 24.92 -7 19.4 71 -11.4 11.4
03:35 1015 29.97 844 24.92 -7 19.4 71 -11.4 11.5
03:40 1015 29.97 844 24.92 -7.1 19.2 72 -11.4 11.4
03:45 1015 29.97 844 24.92 -7.1 19.2 71 -11.5 11.4
03:50 1015 29.97 844 24.92 -7.1 19.3 71 -11.5 11.3
03:55 1015 29.97 844 24.92 -7.1 19.2 71 -11.4 11.4
04:00 1015 29.97 844 24.92 -7.1 19.2 71 -11.5 11.4
04:05 1015 29.97 844 24.92 -7 19.4 71 -11.3 11.6
04:10 1015 29.97 844 24.92 -6.7 19.9 71 -11.1 12
04:15 1015 29.97 844 24.92 -6.6 20.2 71 -11.1 12
04:20 1015 29.97 844 24.92 -6.5 20.4 67 -11.6 11.2
04:25 1015 29.97 844 24.92 -6.5 20.4 68 -11.4 11.5
04:30 1015 29.97 844 24.92 -6.9 19.6 70 -11.5 11.2
04:35 1015 29.97 844 24.92 -6.8 19.7 69 -11.6 11.1
04:40 1015 29.97 844 24.92 -6.9 19.6 68 -11.7 10.9
04:45 1015 29.97 844 24.92 -6.6 20.2 69 -11.4 11.5
04:50 1015 29.97 844 24.92 -6.6 20.2 70 -11.3 11.7
04:55 1015 29.97 844 24.92 -6.9 19.6 70 -11.4 11.4
05:00 1015 29.97 844 24.92 -7.4 18.8 71 -11.7 10.9
05:05 1015 29.97 844 24.92 -7.7 18.2 72 -11.8 10.8
05:10 1015 29.97 845 24.95 -7.7 18.1 73 -11.7 11
05:15 1015 29.97 845 24.95 -7.7 18.1 73 -11.7 11
05:20 1015 29.97 845 24.95 -7.7 18.2 74 -11.6 11.2
05:25 1015 29.97 845 24.95 -7.6 18.2 73 -11.7 10.9
05:30 1015 29.97 845 24.95 -7.9 17.9 74 -11.8 10.8
05:35 1015 29.97 845 24.95 -8.1 17.4 75 -11.8 10.8
05:40 1015 29.97 845 24.95 -8.2 17.2 75 -11.9 10.5
05:45 1015 29.97 845 24.95 -8.2 17.2 74 -12 10.4
05:50 1015 29.97 845 24.95 -8.2 17.3 74 -12.1 10.3
05:55 1015 29.97 845 24.95 -8.4 16.8 75 -12.2 10.1
06:00 1015 29.97 845 24.95 -8.7 16.4 76 -12.2 10.1
06:05 1015 29.97 845 24.95 -8.8 16.1 76 -12.3 9.9
06:10 1015 29.97 845 24.95 -9 15.7 77 -12.4 9.8
06:15 1015 29.97 845 24.95 -9.2 15.4 77 -12.6 9.4
06:20 1015 29.97 845 24.95 -9.3 15.2 77 -12.6 9.4
06:25 1015 29.97 845 24.95 -9.7 14.6 78 -12.9 8.9
06:30 1016 30 845 24.95 -9.8 14.3 78 -13 8.6
06:35 1016 30 845 24.95 -9.8 14.5 78 -12.9 8.8
06:40 1016 30 845 24.95 -9.2 15.5 74 -12.9 8.7
06:45 1016 30 845 24.95 -8.9 15.9 72 -13 8.5
06:50 1016 30 845 24.95 -8.7 16.4 71 -13 8.5
06:55 1016 30 845 24.95 -8.8 16.3 71 -13.1 8.5
07:00 1016 30 845 24.95 -9 15.9 73 -12.9 8.7
07:05 1016 30 845 24.95 -8.7 16.3 70 -13.3 8.1
07:10 1016 30 845 24.95 -8.8 16.1 70 -13.4 8
07:15 1016 30 845 24.95 -9 15.8 70 -13.4 7.8
07:20 1016 30 845 24.95 -8.9 15.9 70 -13.4 7.8
07:25 1016 30 845 24.95 -8.8 16.2 70 -13.4 8
07:30 1016 30 845 24.95 -8.9 16 70 -13.4 7.9
07:35 1016 30 845 24.95 -9.1 15.7 70 -13.5 7.6
07:40 1016 30 845 24.95 -9.1 15.6 70 -13.7 7.4
07:45 1016 30 845 24.95 -9.3 15.4 70 -13.7 7.3
07:50 1016 30 845 24.95 -9.2 15.4 71 -13.6 7.4
07:55 1016 30 845 24.95 -9 15.7 70 -13.6 7.5
08:00 1016 30 845 24.95 -8.7 16.3 68 -13.5 7.6
08:05 1016 30 845 24.95 -9 15.8 69 -13.7 7.3
08:10 1016 30 845 24.95 -8.9 16 68 -13.7 7.3
08:15 1016 30 845 24.95 -8.9 16.1 68 -13.7 7.3
08:20 1016 30 845 24.95 -8.8 16.1 67 -13.9 6.9
08:25 1016 30 845 24.95 -9.1 15.5 67 -14.1 6.6
08:30 1016 30 845 24.95 -8.7 16.4 64 -14.3 6.3
08:35 1016 30 845 24.95 -8.8 16.1 65 -14.3 6.3
08:40 1015 29.97 845 24.95 -8.6 16.5 65 -14.1 6.6
08:45 1015 29.97 845 24.95 -7.9 17.8 62 -14 6.8
08:50 1015 29.97 845 24.95 -7.7 18.2 60 -14.2 6.5
08:55 1015 29.97 845 24.95 -7.4 18.6 59 -14.1 6.7
09:00 1015 29.97 845 24.95 -7.8 18 62 -13.9 7
09:05 1016 30 845 24.95 -7.9 17.9 62 -14 6.8
09:10 1016 30 845 24.95 -7.9 17.9 61 -14.1 6.6
09:15 1016 30 845 24.95 -7.3 19 60 -13.8 7.1
09:20 1016 30 845 24.95 -6.8 19.8 58 -13.7 7.4
09:25 1016 30 845 24.95 -6.2 20.8 56 -13.6 7.5
09:30 1016 30 845 24.95 -5.8 21.5 56 -13.2 8.2
09:35 1016 30 845 24.95 -5.2 22.6 53 -13.3 8.1
09:40 1016 30 845 24.95 -4.7 23.5 52 -13 8.5
09:45 1016 30 845 24.95 -4.6 23.8 51 -13.2 8.2
09:50 1016 30 845 24.95 -4.1 24.6 51 -12.9 8.8
09:55 1016 30 845 24.95 -3.3 26 49 -12.6 9.3
10:00 1016 30 845 24.95 -3 26.6 48 -12.5 9.5
10:05 1016 30 845 24.95 -2.3 27.8 47 -12.1 10.2
10:10 1016 30 846 24.98 -2.5 27.5 47 -12.4 9.7
10:15 1016 30 846 24.98 -3.2 26.2 50 -12.3 9.8
10:20 1017 30.03 846 24.98 -2.5 27.5 49 -11.9 10.6
10:25 1016 30 846 24.98 -2 28.4 47 -11.8 10.7
10:30 1016 30 846 24.98 -2.1 28.2 51 -11 12.2
10:35 1016 30 846 24.98 -2.1 28.2 49 -11.5 11.3
10:40 1016 30 846 24.98 -1.8 28.8 46 -12.1 10.3
10:45 1017 30.03 846 24.98 -1.1 29.9 45 -11.7 11
10:50 1017 30.03 846 24.98 -1.6 29.1 50 -10.8 12.6
10:55 1017 30.03 846 24.98 -2.1 28.3 44 -12.8 9
11:00 1017 30.03 846 24.98 -1.9 28.5 46 -12 10.3
11:05 1017 30.03 846 24.98 -1.7 28.9 44 -12.6 9.4
11:10 1017 30.03 846 24.98 -1.4 29.5 41 -13.1 8.4
11:15 1017 30.03 846 24.98 -0.7 30.8 37 -13.6 7.6
11:20 1017 30.03 846 24.98 0.1 32.1 38 -12.7 9.1
11:25 1017 30.03 846 24.98 0.6 33.1 36 -12.9 8.8
11:30 1017 30.03 846 24.98 0.6 33.1 33 -13.8 7.2
11:35 1017 30.03 846 24.98 0.4 32.7 35 -13.5 7.7
11:40 1017 30.03 846 24.98 -0.3 31.4 37 -13.2 8.2
11:45 1017 30.03 846 24.98 -0.7 30.7 39 -13.1 8.3
11:50 1017 30.03 846 24.98 -0.9 30.4 38 -13.4 7.9
11:55 1016 30 846 24.98 -0.9 30.4 38 -13.7 7.4
12:00 1016 30 846 24.98 -0.8 30.6 39 -13 8.6
12:05 1016 30 846 24.98 -0.4 31.2 39 -12.9 8.8
12:10 1016 30 846 24.98 0.1 32.1 37 -12.9 8.8
12:15 1017 30.03 846 24.98 0.5 32.9 37 -12.5 9.5
12:20 1016 30 846 24.98 0.8 33.4 35 -12.9 8.7
12:25 1016 30 846 24.98 0.9 33.6 37 -12.1 10.2
12:30 1016 30 846 24.98 0.7 33.3 36 -12.9 8.8
12:35 1016 30 846 24.98 1.2 34.1 33 -13.3 8
12:40 1016 30 846 24.98 1.5 34.7 33 -13.3 8.1
12:45 1017 30.03 846 24.98 1.7 35.1 33 -12.9 8.8
12:50 1017 30.03 846 24.98 1.9 35.4 32 -13 8.6
12:55 1017 30.03 846 24.98 1.8 35.3 32 -13.4 8
13:00 1017 30.03 846 24.98 1.7 35 33 -12.8 8.9
13:05 1016 30 846 24.98 2 35.6 31 -13.2 8.2
13:10 1017 30.03 846 24.98 2.3 36.1 31 -13 8.5
13:15 1017 30.03 846 24.98 2.8 37 30 -13.1 8.4
13:20 1017 30.03 846 24.98 3.3 37.9 29 -13 8.6
13:25 1017 30.03 846 24.98 2.3 36.1 33 -12.6 9.4
13:30 1016 30 846 24.98 1.8 35.2 33 -12.8 8.9
13:35 1016 30 846 24.98 1.9 35.4 33 -12.8 8.9
13:40 1016 30 846 24.98 2.5 36.4 31 -13 8.5
13:45 1016 30 846 24.98 3.5 38.3 30 -12.7 9.1
13:50 1016 30 846 24.98 4 39.3 29 -12.4 9.6
13:55 1016 30 846 24.98 4 39.1 29 -12.4 9.7
14:00 1016 30 846 24.98 3.9 39 29 -12.7 9.1
14:05 1016 30 846 24.98 4 39.1 29 -12.6 9.4
14:10 1016 30 846 24.98 4.1 39.4 28 -12.8 9
14:15 1016 30 846 24.98 4.6 40.3 28 -12.2 10
14:20 1016 30 846 24.98 5 41 26 -12.8 9
14:25 1016 30 846 24.98 3.9 39 27 -13.4 7.9
14:30 1016 30 846 24.98 3.9 38.9 28 -13 8.6
14:35 1016 30 846 24.98 4.6 40.3 26 -13.2 8.3
14:40 1016 30 846 24.98 4.6 40.4 26 -13.4 7.8
14:45 1016 30 846 24.98 4.5 40.2 26 -13.6 7.6
14:50 1016 30 846 24.98 4.7 40.4 31 -11.1 12
14:55 1017 30.03 846 24.98 4.2 39.5 32 -11.2 11.9
15:00 1017 30.03 846 24.98 4.3 39.7 30 -11.7 11
15:05 1017 30.03 846 24.98 4.3 39.8 31 -11.2 11.8
15:10 1017 30.03 846 24.98 3.6 38.5 31 -11.9 10.5
15:15 1017 30.03 846 24.98 2.8 37.1 33 -12 10.5
15:20 1017 30.03 846 24.98 2.6 36.7 33 -12.2 10.1
15:25 1017 30.03 846 24.98 2.1 35.8 35 -11.7 11
15:30 1017 30.03 846 24.98 2.3 36.2 35 -11.5 11.3
15:35 1017 30.03 846 24.98 2.4 36.3 33 -12.4 9.7
15:40 1017 30.03 846 24.98 2.2 36 34 -12.2 10
15:45 1017 30.03 846 24.98 2.1 35.8 33 -12.4 9.6
15:50 1017 30.03 846 24.98 1.8 35.2 32 -13.3 8
15:55 1017 30.03 846 24.98 0.6 33.2 35 -13.2 8.3
16:00 1017 30.03 846 24.98 0.1 32.2 38 -12.5 9.6
16:05 1017 30.03 846 24.98 0 32.1 37 -12.9 8.8
16:10 1017 30.03 846 24.98 -0 32 36 -13.4 7.9
16:15 1017 30.03 846 24.98 -0.1 31.8 36 -13.4 7.9
16:20 1017 30.03 846 24.98 -0.1 31.9 36 -13.4 7.9
16:25 1017 30.03 846 24.98 0.3 32.5 35 -13.4 7.8
16:30 1017 30.03 846 24.98 0.4 32.7 35 -13.5 7.7
16:35 1017 30.03 846 24.98 0.1 32.1 36 -13.4 7.9
16:40 1017 30.03 846 24.98 -0.5 31.2 37 -13.6 7.6
16:45 1017 30.03 846 24.98 -0.1 31.8 38 -12.9 8.7
16:50 1017 30.03 846 24.98 -0 31.9 38 -12.8 9
16:55 1017 30.03 846 24.98 -0.2 31.6 40 -12.3 9.8
17:00 1017 30.03 846 24.98 -1.1 30.1 42 -12.3 9.8
17:05 1017 30.03 846 24.98 -1.1 30 40 -13 8.6
17:10 1017 30.03 846 24.98 -1.2 29.9 38 -13.8 7.2
17:15 1017 30.03 846 24.98 -0.7 30.7 39 -13 8.7
17:20 1017 30.03 847 25.01 -0.8 30.6 39 -13.2 8.2
17:25 1017 30.03 847 25.01 -1 30.3 38 -13.5 7.6
17:30 1017 30.03 847 25.01 -1 30.2 38 -13.6 7.4
17:35 1017 30.03 847 25.01 -1.1 30.1 39 -13.5 7.7
17:40 1017 30.03 847 25.01 -1.3 29.7 42 -12.7 9.1
17:45 1018 30.06 847 25.01 -1.4 29.5 43 -12.4 9.6
17:50 1018 30.06 847 25.01 -1.6 29.1 45 -12 10.4
17:55 1018 30.06 847 25.01 -1.8 28.7 44 -12.4 9.6
18:00 1018 30.06 847 25.01 -1.7 28.9 44 -12.5 9.5
18:05 1018 30.06 847 25.01 -1.6 29.1 44 -12.3 9.9
18:10 1018 30.06 847 25.01 -1.8 28.7 46 -12 10.3
18:15 1018 30.06 847 25.01 -1.9 28.6 45 -12.2 10
18:20 1018 30.06 847 25.01 -2.1 28.2 45 -12.4 9.6
18:25 1018 30.06 847 25.01 -2.2 28 50 -11.4 11.5
18:30 1018 30.06 847 25.01 -2.2 28 49 -11.5 11.2
18:35 1018 30.06 847 25.01 -2.4 27.6 51 -11.4 11.5
18:40 1018 30.06 847 25.01 -2.5 27.5 52 -11 12.2
18:45 1018 30.06 847 25.01 -2.7 27.2 54 -10.8 12.5
18:50 1018 30.06 847 25.01 -2.6 27.3 53 -10.9 12.3
18:55 1018 30.06 847 25.01 -2.9 26.7 55 -10.8 12.5
19:00 1018 30.06 848 25.04 -3.2 26.2 58 -10.4 13.2
19:05 1018 30.06 848 25.04 -3.4 25.9 58 -10.6 13
19:10 1018 30.06 848 25.04 -3.1 26.4 56 -10.7 12.7
19:15 1018 30.06 848 25.04 -3.1 26.4 54 -11.1 12.1
19:20 1019 30.09 848 25.04 -2.9 26.7 53 -11.1 12
19:25 1019 30.09 848 25.04 -2.9 26.8 54 -10.9 12.4
19:30 1019 30.09 848 25.04 -3 26.5 55 -10.8 12.5
19:35 1019 30.09 848 25.04 -3.1 26.4 56 -10.7 12.8
19:40 1019 30.09 848 25.04 -3.1 26.4 56 -10.8 12.6
19:45 1019 30.09 848 25.04 -3.3 26 56 -10.8 12.6
19:50 1019 30.09 848 25.04 -3.5 25.6 57 -10.9 12.4
19:55 1019 30.09 848 25.04 -3.8 25.2 58 -10.9 12.3
20:00 1019 30.09 848 25.04 -3.7 25.4 57 -11 12.3
20:05 1019 30.09 848 25.04 -3.8 25.2 58 -10.9 12.4
20:10 1019 30.09 848 25.04 -4 24.8 58 -11.1 12.1
20:15 1019 30.09 848 25.04 -4.1 24.7 58 -11.2 11.9
20:20 1019 30.09 848 25.04 -3.9 24.9 58 -11.1 12
20:25 1019 30.09 849 25.07 -3.6 25.5 55 -11.3 11.6
20:30 1019 30.09 849 25.07 -3.5 25.8 56 -11.1 12
20:35 1019 30.09 849 25.07 -3.4 25.9 55 -11.2 11.9
20:40 1019 30.09 849 25.07 -3.4 25.8 56 -11.1 12
20:45 1019 30.09 849 25.07 -3.5 25.6 56 -11.2 11.8
20:50 1019 30.09 849 25.07 -3.6 25.6 56 -11.2 11.8
20:55 1019 30.09 849 25.07 -3 26.6 48 -12.6 9.3
21:00 1019 30.09 849 25.07 -3 26.5 47 -12.9 8.8
21:05 1019 30.09 849 25.07 -3.4 26 51 -12 10.4
21:10 1019 30.09 849 25.07 -2.9 26.8 52 -11.5 11.2
21:15 1019 30.09 849 25.07 -2.9 26.7 52 -11.5 11.2
21:20 1019 30.09 849 25.07 -2.9 26.8 50 -11.8 10.7
21:25 1019 30.09 849 25.07 -3.1 26.3 53 -11.4 11.5
21:30 1019 30.09 849 25.07 -3.1 26.4 55 -11 12.3
21:35 1019 30.09 849 25.07 -2.7 27.1 52 -11.2 11.9
21:40 1019 30.09 849 25.07 -2.4 27.6 53 -10.8 12.5
21:45 1019 30.09 849 25.07 -2.2 28.1 51 -11.1 12.1
21:50 1019 30.09 849 25.07 -1.7 28.9 50 -10.8 12.6
21:55 1019 30.09 849 25.07 -1.7 28.9 51 -10.6 13
22:00 1019 30.09 849 25.07 -2.3 27.9 54 -10.4 13.3
22:05 1020 30.12 849 25.07 -2.4 27.6 54 -10.5 13.1
22:10 1020 30.12 849 25.07 -2.3 27.9 54 -10.4 13.2
22:15 1020 30.12 849 25.07 -2.4 27.7 54 -10.5 13
22:20 1020 30.12 849 25.07 -2.4 27.6 53 -10.7 12.7
22:25 1020 30.12 849 25.07 -2.6 27.2 54 -10.6 12.9
22:30 1020 30.12 849 25.07 -2.3 27.8 51 -11.2 11.9
22:35 1020 30.12 849 25.07 -2 28.4 50 -11.1 12
22:40 1020 30.12 849 25.07 -1.9 28.6 51 -10.8 12.6
22:45 1020 30.12 849 25.07 -2.6 27.4 58 -9.8 14.4
22:50 1020 30.12 849 25.07 -2.4 27.6 51 -11.4 11.5
22:55 1020 30.12 849 25.07 -1.1 30 47 -11 12.3
23:00 1020 30.12 849 25.07 -1.3 29.6 47 -11.2 11.9
23:05 1020 30.12 849 25.07 -0.8 30.6 45 -11.2 11.8
23:10 1020 30.12 849 25.07 -1.5 29.3 50 -10.7 12.8
23:15 1020 30.12 849 25.07 -2.2 28.1 59 -9 15.7
23:20 1020 30.12 849 25.07 -2.3 27.9 60 -9.1 15.6
23:25 1020 30.12 849 25.07 -2.7 27.1 59 -9.6 14.7
23:30 1020 30.12 849 25.07 -2.8 26.9 56 -10.5 13.2
23:35 1020 30.12 849 25.07 -2.7 27.2 56 -10.3 13.4
23:40 1020 30.12 849 25.07 -2.7 27.2 53 -11 12.2
23:45 1020 30.12 849 25.07 -2.3 27.9 57 -9.6 14.8
23:50 1020 30.12 849 25.07 -2.5 27.5 57 -9.9 14.1
23:55 1020 30.12 849 25.07 -2.2 28 53 -10.4 13.2
24:00 1020 30.12 849 25.07 -2.2 28 54 -10.4 13.2